Capitol Logistics 315


KMCI
Kansas City International Airport
Kansas City, Missouri, US
KLAX
Los Angeles International Airport
Los Angeles, California, US

Activity Log

Date Flight Route Aircraft Duration
07/18/2019 CPX315 KMCI/19R SLN KD45W ALS TBC JASSE Q90 DNERO ANJLL4 KLAX/25L B763 2h 54m

Route Details

Aircraft Information
Primary: Boeing 767-300BDSF
Backup: Boeing 757-200SF
Route Data
Distance: 1184nm
Sched. Duration: 3h 29m
Avg. Duration: 2h 54m (-76m)
Times Flown: 1
Recm'd Route: WL5 SLN KD45W ALS TBC JASSE Q90 DNERO ANJLL4
Planned Altitude: 34,000ft
Origin Wx: KMCI 210853Z 19006KT 10SM CLR M08/M13 A3067 RMK AO2 SLP398 T10831133 58014
Dest. Wx: KLAX 210853Z 25005KT 10SM FEW014 SCT150 15/09 A3004 RMK AO2 SLP169 T01500094 56009
Notes: METROAIR CARGO SUPPORT

Financial History
Total Freight: 115,380lbs
Average Load: 115,380lbs/flt
Fuel Used: 29,489lbs
Avg. Fuel Used: 29,489lbs/flt
Fuel Expense: $32,438
Avg. Fuel Expense: $32,438
Avg. Fuel Cost: $1.10/lbs
Total Gross Income: $160,378
Pilot Pay: $69
Total Expenses: $17,373
Total Revenue: $109,903
Average Revenue: $160,378.20